createdAt,value
2022-09-06T00:01:18.126Z,3.70
2022-09-06T00:06:17.316Z,3.90
2022-09-06T00:08:46.118Z,3.40
2022-09-06T00:11:15.001Z,3.95
2022-09-06T00:13:43.252Z,3.72
2022-09-06T00:16:14.916Z,3.75
2022-09-06T00:18:44.670Z,4.07
2022-09-06T00:21:20.861Z,3.75
2022-09-06T00:23:52.445Z,3.38
2022-09-06T00:26:21.450Z,3.38
2022-09-06T00:28:56.583Z,3.10
2022-09-06T00:31:28.819Z,3.28
2022-09-06T00:36:25.586Z,3.55
2022-09-06T00:38:58.307Z,3.25
2022-09-06T00:41:26.305Z,3.38
2022-09-06T00:43:58.225Z,4.03
2022-09-06T00:46:31.473Z,3.47
2022-09-06T00:49:03.908Z,3.88
2022-09-06T00:54:06.693Z,3.30
2022-09-06T00:56:36.491Z,3.20
2022-09-06T00:59:05.414Z,3.72
2022-09-06T01:01:37.492Z,4.45
2022-09-06T01:04:05.948Z,4.35
2022-09-06T01:06:45.643Z,4.80
2022-09-06T01:09:24.557Z,6.28
2022-09-06T01:12:07.292Z,8.10
2022-09-06T01:14:59.837Z,5.88
2022-09-06T01:17:48.784Z,6.13
2022-09-06T01:20:41.971Z,6.35
2022-09-06T01:23:59.478Z,5.00
2022-09-06T01:27:10.385Z,4.97
2022-09-06T01:30:16.784Z,5.50
2022-09-06T01:33:48.907Z,6.47
2022-09-06T01:36:26.088Z,6.05
2022-09-06T01:39:03.270Z,5.43
2022-09-06T01:41:48.330Z,5.55
2022-09-06T01:44:36.474Z,5.60
2022-09-06T01:47:24.374Z,5.20
2022-09-06T01:50:14.647Z,5.65
2022-09-06T01:53:10.119Z,6.18
2022-09-06T01:55:49.007Z,5.43
2022-09-06T01:58:52.162Z,6.00
2022-09-06T02:01:29.691Z,5.82
2022-09-06T02:04:16.208Z,5.53
2022-09-06T02:06:51.083Z,5.50
2022-09-06T02:09:28.001Z,5.75
2022-09-06T02:12:14.660Z,5.20
2022-09-06T02:14:53.021Z,5.90
2022-09-06T02:17:28.006Z,5.30
2022-09-06T02:20:08.687Z,5.45
2022-09-06T02:22:44.998Z,5.82
2022-09-06T02:25:29.088Z,5.55
2022-09-06T02:28:02.526Z,5.22
2022-09-06T02:30:37.478Z,5.38
2022-09-06T02:33:14.970Z,5.28
2022-09-06T02:35:58.768Z,5.68
2022-09-06T02:38:35.363Z,5.40
2022-09-06T03:14:51.910Z,6.70
2022-09-06T06:33:58.646Z,7.18
2022-09-06T06:36:34.249Z,7.22
2022-09-06T06:39:11.876Z,7.60
2022-09-06T06:41:45.564Z,6.88
2022-09-06T06:44:21.015Z,6.82
2022-09-06T06:46:51.253Z,7.18
2022-09-06T06:49:35.315Z,7.55
2022-09-06T06:52:09.305Z,7.15
2022-09-06T06:54:51.793Z,7.35
2022-09-06T06:59:49.886Z,7.32
2022-09-06T07:02:27.186Z,7.07
2022-09-06T07:07:56.905Z,7.35
2022-09-06T07:10:32.861Z,7.88
2022-09-06T07:13:01.379Z,7.03
2022-09-06T07:15:33.105Z,6.85
2022-09-06T07:18:04.858Z,6.93
2022-09-06T07:26:18.534Z,7.35
2022-09-06T07:28:47.010Z,7.65
2022-09-06T07:34:05.188Z,7.93
2022-09-06T07:36:37.963Z,7.38
2022-09-06T07:39:07.977Z,6.55
2022-09-06T07:41:35.855Z,6.75
2022-09-06T07:44:04.276Z,6.05
2022-09-06T07:46:32.441Z,6.28
2022-09-06T07:49:02.585Z,5.68
2022-09-06T07:51:32.734Z,6.43
2022-09-06T07:56:51.250Z,6.18
2022-09-06T07:59:20.493Z,6.32
2022-09-06T08:01:49.553Z,6.20
2022-09-06T08:04:17.555Z,5.93
2022-09-06T08:09:38.304Z,6.47
2022-09-06T08:12:07.686Z,6.57
2022-09-06T08:14:36.469Z,6.10
2022-09-06T08:17:04.894Z,6.47
2022-09-06T08:19:38.767Z,5.70
2022-09-06T08:22:09.162Z,6.30
2022-09-06T08:24:38.748Z,6.20
2022-09-06T08:27:08.728Z,6.05
2022-09-06T08:29:36.764Z,6.28
2022-09-06T08:32:09.174Z,6.20
2022-09-06T08:34:37.172Z,6.30
2022-09-06T08:37:07.119Z,5.80
2022-09-06T08:39:35.187Z,6.53
2022-09-06T08:42:06.923Z,6.05
2022-09-06T08:47:23.262Z,5.75
2022-09-06T08:49:53.910Z,6.10
2022-09-06T08:52:54.355Z,5.90
2022-09-06T08:55:37.701Z,5.38
2022-09-06T08:58:22.122Z,5.68
2022-09-06T09:00:58.477Z,5.20
2022-09-06T09:03:31.773Z,5.18
2022-09-06T09:06:03.464Z,4.80
2022-09-06T09:08:37.004Z,4.50
2022-09-06T09:11:07.371Z,5.00
2022-09-06T09:13:51.392Z,5.53
2022-09-06T09:16:20.353Z,5.13
2022-09-06T09:18:53.531Z,5.22
2022-09-06T09:21:30.130Z,5.78
2022-09-06T09:24:04.410Z,5.38
2022-09-06T09:26:37.620Z,4.95
2022-09-06T09:29:15.806Z,4.97
2022-09-06T09:31:52.849Z,4.60
2022-09-06T09:34:32.977Z,5.07
2022-09-06T09:40:03.258Z,4.95
2022-09-06T09:42:38.951Z,5.47
2022-09-06T09:45:25.559Z,4.63
2022-09-06T09:47:55.374Z,5.05
2022-09-06T09:50:31.074Z,5.18
2022-09-06T09:53:08.685Z,4.72
2022-09-06T09:55:36.954Z,5.82
2022-09-06T09:58:07.109Z,4.90
2022-09-06T10:00:39.723Z,4.57
2022-09-06T10:03:15.409Z,5.07
2022-09-06T10:05:46.829Z,4.47
2022-09-06T10:08:19.548Z,4.70
2022-09-06T10:10:51.205Z,4.43
2022-09-06T10:13:21.342Z,4.65
2022-09-06T10:15:54.583Z,4.00
2022-09-06T10:18:31.602Z,4.13
2022-09-06T10:21:02.990Z,3.88
2022-09-06T10:26:34.211Z,4.25
2022-09-06T10:29:08.162Z,4.05
2022-09-06T10:32:00.179Z,4.00
2022-09-06T10:34:49.966Z,4.32
2022-09-06T10:37:28.685Z,4.90
2022-09-06T10:40:07.680Z,4.20
2022-09-06T10:42:43.762Z,3.30
2022-09-06T10:45:27.790Z,4.35
2022-09-06T10:48:05.312Z,3.55
2022-09-06T10:50:44.585Z,3.65
2022-09-06T10:53:18.177Z,4.10
2022-09-06T10:55:50.303Z,3.20
2022-09-06T10:58:28.575Z,3.10
2022-09-06T11:00:56.597Z,3.70
2022-09-06T11:06:29.996Z,3.40
2022-09-06T11:09:03.747Z,3.10
2022-09-06T11:11:39.779Z,3.47
2022-09-06T11:14:16.580Z,3.10
2022-09-06T11:16:52.144Z,3.33
2022-09-06T11:19:26.318Z,2.88
2022-09-06T11:22:20.490Z,2.88
2022-09-06T11:25:13.216Z,3.33
2022-09-06T11:27:57.932Z,2.72
2022-09-06T11:30:38.593Z,3.40
2022-09-06T11:33:20.480Z,2.70
2022-09-06T11:38:28.087Z,2.90
2022-09-06T11:41:10.385Z,2.80
2022-09-06T11:47:02.681Z,2.77
2022-09-06T11:49:41.299Z,2.60
2022-09-06T11:52:59.387Z,2.60
2022-09-06T11:55:40.282Z,2.08
2022-09-06T11:58:25.598Z,2.28
2022-09-06T12:01:30.844Z,2.25
2022-09-06T12:04:07.880Z,2.35
2022-09-06T12:07:12.939Z,2.05
2022-09-06T12:09:45.306Z,2.28
2022-09-06T12:13:05.029Z,2.22
2022-09-06T12:15:54.401Z,1.90
2022-09-06T12:18:57.018Z,2.33
2022-09-06T12:21:53.077Z,2.10
2022-09-06T12:24:59.460Z,2.63
2022-09-06T12:27:33.878Z,2.50
2022-09-06T12:30:12.455Z,2.97
2022-09-06T12:32:45.046Z,2.92
2022-09-06T12:38:13.319Z,2.00
2022-09-06T12:40:48.701Z,2.25
2022-09-06T12:43:22.764Z,2.42
2022-09-06T12:45:56.723Z,2.28
2022-09-06T12:48:31.660Z,2.30
2022-09-06T12:51:09.716Z,2.30
2022-09-06T12:53:40.513Z,2.70
2022-09-06T12:56:12.196Z,2.55
2022-09-06T12:58:43.023Z,2.47
2022-09-06T13:01:26.600Z,2.00
2022-09-06T13:04:04.540Z,1.98
2022-09-06T13:06:47.030Z,2.40
2022-09-06T13:09:28.101Z,2.50
2022-09-06T13:12:04.681Z,2.43
2022-09-06T13:14:36.796Z,2.20
2022-09-06T13:17:07.726Z,2.45
2022-09-06T13:19:40.378Z,2.23
2022-09-06T13:22:11.134Z,2.97
2022-09-06T13:24:50.504Z,2.23
2022-09-06T13:27:27.962Z,2.33
2022-09-06T13:30:07.561Z,2.50
2022-09-06T13:32:54.234Z,2.40
2022-09-06T13:36:10.262Z,2.35
2022-09-06T13:38:44.036Z,2.17
2022-09-06T13:41:44.204Z,2.00
2022-09-06T13:44:21.443Z,2.30
2022-09-06T13:46:57.704Z,2.25
2022-09-06T13:50:01.683Z,2.05
2022-09-06T13:57:10.937Z,2.50
2022-09-06T14:00:24.678Z,2.10
2022-09-06T14:02:55.648Z,2.08
2022-09-06T14:05:30.460Z,1.85
2022-09-06T14:08:00.308Z,2.30
2022-09-06T14:10:28.392Z,2.05
2022-09-06T14:13:01.833Z,1.90
2022-09-06T14:15:31.947Z,2.03
2022-09-06T14:18:03.015Z,1.98
2022-09-06T14:20:31.141Z,1.90
2022-09-06T14:22:59.216Z,2.08
2022-09-06T14:25:27.354Z,2.22
2022-09-06T14:27:55.544Z,2.17
2022-09-06T14:30:24.779Z,1.80
2022-09-06T14:32:57.977Z,1.48
2022-09-06T14:35:29.807Z,1.70
2022-09-06T14:38:01.837Z,1.80
2022-09-06T14:40:31.995Z,1.80
2022-09-06T14:43:02.017Z,1.88
2022-09-06T14:45:30.141Z,1.58
2022-09-06T14:47:59.987Z,1.48
2022-09-06T14:50:34.023Z,1.77
2022-09-06T14:53:24.100Z,1.70
2022-09-06T14:55:56.551Z,1.77
2022-09-06T14:58:24.534Z,1.70
2022-09-06T15:00:55.560Z,1.73
2022-09-06T15:03:23.625Z,1.80
2022-09-06T15:05:53.194Z,1.90
2022-09-06T15:08:25.200Z,2.35
2022-09-06T15:10:56.151Z,2.03
2022-09-06T15:13:26.421Z,2.30
2022-09-06T15:15:57.085Z,2.10
2022-09-06T15:18:25.334Z,2.33
2022-09-06T15:20:58.747Z,2.30
2022-09-06T15:23:44.064Z,2.38
2022-09-06T15:26:16.041Z,2.00
2022-09-06T15:28:44.875Z,2.65
2022-09-06T15:31:15.719Z,2.35
2022-09-06T15:33:46.311Z,2.27
2022-09-06T15:36:20.190Z,2.30
2022-09-06T15:38:54.293Z,2.38
2022-09-06T15:41:25.509Z,2.63
2022-09-06T15:43:56.977Z,1.83
2022-09-06T15:47:44.269Z,1.90
2022-09-06T15:50:19.097Z,2.10
2022-09-06T15:53:05.570Z,1.95
2022-09-06T15:56:13.094Z,2.20
2022-09-06T15:58:48.948Z,2.35
2022-09-06T16:01:18.903Z,1.80
2022-09-06T16:03:50.989Z,1.95
2022-09-06T16:08:54.119Z,2.05
2022-09-06T16:11:22.309Z,1.88
2022-09-06T16:13:53.018Z,2.22
2022-09-06T16:16:21.590Z,2.05
2022-09-06T16:18:57.293Z,2.20
2022-09-06T16:21:28.352Z,2.22
2022-09-06T16:23:59.590Z,2.10
2022-09-06T16:26:29.360Z,1.90
2022-09-06T16:28:57.376Z,2.03
2022-09-06T16:31:25.797Z,2.00
2022-09-06T16:33:54.439Z,2.00
2022-09-06T16:36:26.019Z,1.98
2022-09-06T16:38:54.941Z,2.30
2022-09-06T16:41:27.033Z,2.58
2022-09-06T16:44:04.103Z,2.17
2022-09-06T16:46:32.279Z,2.20
2022-09-06T16:49:02.972Z,2.45
2022-09-06T16:51:32.270Z,2.15
2022-09-06T16:54:01.032Z,2.92
2022-09-06T16:56:34.811Z,2.10
2022-09-06T16:59:07.564Z,2.22
2022-09-06T17:01:41.507Z,2.40
2022-09-06T17:04:09.936Z,2.00
2022-09-06T17:06:46.179Z,2.33
2022-09-06T17:09:15.870Z,2.22
2022-09-06T17:12:30.173Z,2.15
2022-09-06T17:14:59.555Z,2.13
2022-09-06T17:17:27.734Z,2.35
2022-09-06T17:19:56.974Z,2.15
2022-09-06T17:22:25.053Z,2.20
2022-09-06T17:24:53.398Z,2.70
2022-09-06T17:27:21.336Z,2.28
2022-09-06T17:29:49.339Z,2.05
2022-09-06T17:32:18.846Z,2.92
2022-09-06T17:34:47.020Z,4.70
2022-09-06T17:37:17.358Z,3.70
2022-09-06T17:39:45.422Z,2.85
2022-09-06T17:42:16.854Z,4.13
2022-09-06T17:44:49.081Z,6.32
2022-09-06T17:47:19.408Z,16.77
2022-09-06T17:49:47.377Z,6.47
2022-09-06T17:52:17.098Z,5.30
2022-09-06T17:54:47.331Z,4.05
2022-09-06T17:57:15.154Z,4.90
2022-09-06T17:59:44.229Z,4.10
2022-09-06T18:02:12.071Z,3.30
2022-09-06T18:04:41.461Z,2.85
2022-09-06T18:07:11.023Z,3.10
2022-09-06T18:09:44.513Z,2.50
2022-09-06T18:12:15.097Z,2.55
2022-09-06T18:14:44.808Z,3.60
2022-09-06T18:17:16.737Z,4.03
2022-09-06T18:22:17.255Z,3.00
2022-09-06T18:24:48.632Z,3.10
2022-09-06T18:27:16.735Z,2.90
2022-09-06T18:29:44.688Z,2.65
2022-09-06T18:32:13.031Z,3.70
2022-09-06T18:34:41.084Z,3.10
2022-09-06T18:37:12.205Z,2.85
2022-09-06T18:39:42.316Z,3.07
2022-09-06T18:42:11.387Z,2.78
2022-09-06T18:44:41.676Z,2.65
2022-09-06T18:47:14.702Z,2.90
2022-09-06T18:49:44.786Z,2.60
2022-09-06T18:52:20.458Z,3.47
2022-09-06T18:54:49.406Z,2.45
2022-09-06T18:57:17.547Z,2.70
2022-09-06T18:59:49.522Z,2.53
2022-09-06T19:04:55.046Z,3.58
2022-09-06T19:07:29.706Z,3.88
2022-09-06T19:09:57.800Z,3.00
2022-09-06T19:12:27.156Z,2.65
2022-09-06T19:14:57.508Z,3.10
2022-09-06T19:17:27.702Z,2.90
2022-09-06T19:19:57.757Z,2.70
2022-09-06T19:22:28.456Z,2.90
2022-09-06T19:24:56.450Z,2.75
2022-09-06T19:27:25.614Z,2.78
2022-09-06T19:29:55.457Z,2.80
2022-09-06T19:32:23.458Z,2.92
2022-09-06T19:34:51.371Z,2.88
2022-09-06T19:37:20.629Z,3.20
2022-09-06T19:39:50.154Z,2.95
2022-09-06T19:42:18.224Z,3.42
2022-09-06T19:44:50.661Z,3.10
2022-09-06T19:47:18.790Z,3.00
2022-09-06T19:49:59.230Z,2.67
2022-09-06T19:52:29.749Z,2.92
2022-09-06T19:55:00.569Z,3.17
2022-09-06T19:57:29.977Z,3.08
2022-09-06T20:00:04.174Z,3.15
2022-09-06T20:02:38.402Z,3.13
2022-09-06T20:05:24.240Z,2.97
2022-09-06T20:07:52.562Z,3.40
2022-09-06T20:10:22.034Z,3.40
2022-09-06T20:13:50.636Z,2.70
2022-09-06T20:16:22.503Z,3.30
2022-09-06T20:18:54.791Z,2.80
2022-09-06T20:21:30.084Z,2.95
2022-09-06T20:24:02.333Z,2.80
2022-09-06T20:26:41.625Z,2.88
2022-09-06T20:29:10.779Z,3.42
2022-09-06T20:31:42.047Z,3.28
2022-09-06T20:34:11.093Z,2.83
2022-09-06T20:36:39.116Z,2.85
2022-09-06T20:39:07.126Z,3.45
2022-09-06T20:41:37.728Z,2.88
2022-09-06T20:44:14.915Z,2.92
2022-09-06T20:46:45.000Z,2.78
2022-09-06T20:49:14.976Z,2.83
2022-09-06T20:51:43.380Z,3.15
2022-09-06T20:54:12.366Z,2.75
2022-09-06T20:56:43.930Z,3.00
2022-09-06T20:59:13.717Z,2.53
2022-09-06T21:01:59.678Z,2.47
2022-09-06T21:04:29.897Z,2.55
2022-09-06T21:07:13.625Z,2.47
2022-09-06T21:21:10.568Z,2.78
2022-09-06T21:23:47.120Z,2.50
2022-09-06T21:26:16.549Z,2.42
2022-09-06T21:28:45.858Z,2.70
2022-09-06T21:31:55.368Z,2.60
2022-09-06T21:35:14.057Z,2.40
2022-09-06T21:37:46.088Z,2.30
2022-09-06T21:40:18.586Z,2.60
2022-09-06T21:42:46.509Z,2.53
2022-09-06T21:45:14.545Z,2.33
2022-09-06T21:47:54.183Z,2.47
2022-09-06T21:51:20.348Z,2.15
2022-09-06T21:53:58.319Z,2.03
2022-09-06T21:56:28.308Z,2.30
2022-09-06T21:58:58.443Z,2.33
2022-09-06T22:01:46.532Z,2.72
2022-09-06T22:04:15.117Z,3.22
2022-09-06T22:06:44.778Z,2.63
2022-09-06T22:09:14.750Z,2.53
2022-09-06T22:11:46.283Z,2.95
2022-09-06T22:14:18.016Z,2.83
2022-09-06T22:16:46.074Z,3.03
2022-09-06T22:19:17.637Z,2.63
2022-09-06T22:21:46.845Z,2.70
2022-09-06T22:24:18.760Z,2.38
2022-09-06T22:26:47.027Z,2.45
2022-09-06T22:29:17.812Z,2.90
2022-09-06T22:31:47.534Z,2.85
2022-09-06T22:34:16.442Z,3.60
2022-09-06T22:36:48.478Z,2.95
2022-09-06T22:39:18.224Z,2.92
2022-09-06T22:41:47.434Z,3.22
2022-09-06T22:44:20.630Z,3.08
2022-09-06T22:46:49.175Z,2.80
2022-09-06T22:49:19.968Z,3.00
2022-09-06T22:51:47.958Z,2.65
2022-09-06T22:54:20.999Z,2.83
2022-09-06T22:56:54.031Z,3.20
2022-09-06T22:59:23.778Z,2.72
2022-09-06T23:01:51.921Z,2.97
2022-09-06T23:04:20.151Z,3.03
2022-09-06T23:06:50.679Z,2.95
2022-09-06T23:09:20.357Z,2.55
2022-09-06T23:11:48.369Z,2.75
2022-09-06T23:14:20.087Z,2.38
2022-09-06T23:16:48.193Z,3.00
2022-09-06T23:19:16.452Z,2.63
2022-09-06T23:21:44.820Z,2.80
2022-09-06T23:24:12.851Z,2.72
2022-09-06T23:26:42.300Z,2.40
2022-09-06T23:29:12.889Z,2.55
2022-09-06T23:31:42.556Z,2.38
2022-09-06T23:34:10.679Z,2.80
2022-09-06T23:36:38.639Z,3.15
2022-09-06T23:39:07.769Z,2.55
2022-09-06T23:41:37.834Z,3.28
2022-09-06T23:44:08.910Z,2.63
2022-09-06T23:46:38.466Z,2.70
2022-09-06T23:49:06.472Z,2.70
2022-09-06T23:51:41.498Z,2.67
2022-09-06T23:54:11.479Z,3.00
2022-09-06T23:56:39.458Z,2.80
2022-09-06T23:59:09.025Z,2.63
